Aviation Digital Data Service (ADDS)

Output produced by METARs form (1445 UTC 23 January 2017)
found at http://aviationweather.gov/adds/metars/
 
KPHL 231431Z 2315/2418 06020G35KT 6SM -RADZ BR OVC015 
     FM231900 06023G40KT 3SM -RA BR OVC007 WS020/08050KT 
     FM240100 03020G30KT 3SM -RA BR OVC007 WS020/08055KT 
     FM240700 01015G23KT 5SM -RA BR OVC010 
     FM241400 34015G25KT P6SM OVC030